06:44
Airports
History
Links
Donate
Help keep this website running!
PayPal
Bitcoin
This page is community maintained. The information is intended for PC simulator navigation or reference.
Always use approved charts for navigation.
YCEM
ColdstreamEdited 30-Jun-2011
Coldstream (YCEM)
Coldstream, Victoria, Australia (3770)
4
Lat/Lng:37° 43' 26.67" S / 145° 24' 18.8" E
-37.724076 / 145.405221
Elevation:301'ft / 92mMSL
ID / ICAO:YCEM
Runways:1
Longest:17-35
Gravel 789m / 2,587ft
(Edited 2011-06-30) [ Sign in to Edit ]
Nearby Weather06:00 GMT 2017-12-12
Nearby weather at YMEN, Essendon located 27.4 nautical miles from YCEM
Altimeter: 29.94
Visibility: 6.2 statute miles
Wind: 11 knots (from 190°)
Temp: 24°c / 75°f
Humidity: 53.6%

METAR: YMEN 120600Z AUTO 19011KT 9999 // NCD 24/14 Q1014

(Powered by phpweather)
Airport Radio Frequencies
CTAF: 119.1
Runway 17 / 35
Dimensions:788.6 x 14m 2587' x 46'ft
Surface:Gravel
Runway 17 [A]Runway 35 [B]
Heading:356°TH 176°TH
Lat:
Lng:
37° 43' 39.44"S
145° 24' 19.92"E
37° 43' 13.91"S
145° 24' 17.67"E
User Notes and Comments
37° 43' 26.67" S / 145° 24' 18.8" E
Distance To
Airport ID:
Nearby Airports
4 Lilydale 3.0 NM
YLIL NW 315°
(C) Melbourne Moorabbin 24.1 NM
YMMB SW 223°
4 NAR NAR GOON 25.6 NM
YNNG SSE 158°
(C) Essendon 27.4 NM
YMEN ( WX ) W 269°
4 Taggerty 30.6 NM
YTGG NNE 32°
(C) Melbourne Intl 31.4 NM
YMML ( WX ) W 276°
(U) Tooradin 34.0 NM
YTDN S 178°
VFR Chart
Flight Planning at SkyVector.com